sensor_id;sensor_type;location;lat;lon;timestamp;temperature;humidity
68385;DHT22;55336;43.062;25.626;2023-03-24T00:00:57;1.80;99.90
68385;DHT22;55336;43.062;25.626;2023-03-24T00:03:23;1.70;99.90
68385;DHT22;55336;43.062;25.626;2023-03-24T00:05:54;1.70;99.90
68385;DHT22;55336;43.062;25.626;2023-03-24T00:08:19;1.70;99.90
68385;DHT22;55336;43.062;25.626;2023-03-24T00:10:46;1.60;99.90
68385;DHT22;55336;43.062;25.626;2023-03-24T00:13:12;1.60;99.90
68385;DHT22;55336;43.062;25.626;2023-03-24T00:15:38;1.60;99.90
68385;DHT22;55336;43.062;25.626;2023-03-24T00:18:04;1.60;99.90
68385;DHT22;55336;43.062;25.626;2023-03-24T00:20:35;1.60;99.90
68385;DHT22;55336;43.062;25.626;2023-03-24T00:23:00;1.70;99.90
68385;DHT22;55336;43.062;25.626;2023-03-24T00:25:27;1.70;99.90
68385;DHT22;55336;43.062;25.626;2023-03-24T00:27:54;1.60;99.90
68385;DHT22;55336;43.062;25.626;2023-03-24T00:30:20;1.60;99.90
68385;DHT22;55336;43.062;25.626;2023-03-24T00:32:46;1.60;99.90
68385;DHT22;55336;43.062;25.626;2023-03-24T00:35:12;1.60;99.90
68385;DHT22;55336;43.062;25.626;2023-03-24T00:37:39;1.60;99.90
68385;DHT22;55336;43.062;25.626;2023-03-24T00:40:07;1.60;99.90
68385;DHT22;55336;43.062;25.626;2023-03-24T00:42:35;1.60;99.90
68385;DHT22;55336;43.062;25.626;2023-03-24T00:45:05;1.50;99.90
68385;DHT22;55336;43.062;25.626;2023-03-24T00:47:31;1.50;99.90
68385;DHT22;55336;43.062;25.626;2023-03-24T00:50:04;1.40;99.90
68385;DHT22;55336;43.062;25.626;2023-03-24T00:52:31;1.40;99.90
68385;DHT22;55336;43.062;25.626;2023-03-24T00:54:59;1.40;99.90
68385;DHT22;55336;43.062;25.626;2023-03-24T00:57:26;1.40;99.90
68385;DHT22;55336;43.062;25.626;2023-03-24T00:59:54;1.40;99.90
68385;DHT22;55336;43.062;25.626;2023-03-24T01:02:21;1.40;99.90
68385;DHT22;55336;43.062;25.626;2023-03-24T01:04:52;1.40;99.90
68385;DHT22;55336;43.062;25.626;2023-03-24T01:07:19;1.50;99.90
68385;DHT22;55336;43.062;25.626;2023-03-24T01:09:45;1.50;99.90
68385;DHT22;55336;43.062;25.626;2023-03-24T01:12:17;1.40;99.90
68385;DHT22;55336;43.062;25.626;2023-03-24T01:14:43;1.40;99.90
68385;DHT22;55336;43.062;25.626;2023-03-24T01:17:09;1.40;99.90
68385;DHT22;55336;43.062;25.626;2023-03-24T01:19:35;1.40;99.90
68385;DHT22;55336;43.062;25.626;2023-03-24T01:22:01;1.40;99.90
68385;DHT22;55336;43.062;25.626;2023-03-24T01:24:27;1.30;99.90
68385;DHT22;55336;43.062;25.626;2023-03-24T01:26:53;1.30;99.90
68385;DHT22;55336;43.062;25.626;2023-03-24T01:29:19;1.40;99.90
68385;DHT22;55336;43.062;25.626;2023-03-24T01:31:45;1.30;99.90
68385;DHT22;55336;43.062;25.626;2023-03-24T01:34:11;1.40;99.90
68385;DHT22;55336;43.062;25.626;2023-03-24T01:36:37;1.40;99.90
68385;DHT22;55336;43.062;25.626;2023-03-24T01:39:03;1.40;99.90
68385;DHT22;55336;43.062;25.626;2023-03-24T01:41:32;1.50;99.90
68385;DHT22;55336;43.062;25.626;2023-03-24T01:43:58;1.60;99.90
68385;DHT22;55336;43.062;25.626;2023-03-24T01:46:24;1.70;99.90
68385;DHT22;55336;43.062;25.626;2023-03-24T01:48:55;1.70;99.90
68385;DHT22;55336;43.062;25.626;2023-03-24T01:51:30;1.80;99.90
68385;DHT22;55336;43.062;25.626;2023-03-24T01:56:41;1.90;99.90
68385;DHT22;55336;43.062;25.626;2023-03-24T01:59:18;2.00;99.90
68385;DHT22;55336;43.062;25.626;2023-03-24T02:01:45;2.10;99.90
68385;DHT22;55336;43.062;25.626;2023-03-24T02:04:11;2.10;99.90
68385;DHT22;55336;43.062;25.626;2023-03-24T02:06:38;2.10;99.90
68385;DHT22;55336;43.062;25.626;2023-03-24T02:09:06;2.20;99.90
68385;DHT22;55336;43.062;25.626;2023-03-24T02:11:33;2.20;99.90
68385;DHT22;55336;43.062;25.626;2023-03-24T02:13:59;2.30;99.90
68385;DHT22;55336;43.062;25.626;2023-03-24T02:21:41;2.30;99.90
68385;DHT22;55336;43.062;25.626;2023-03-24T02:41:59;2.00;99.90
68385;DHT22;55336;43.062;25.626;2023-03-24T02:44:33;2.10;99.90
68385;DHT22;55336;43.062;25.626;2023-03-24T02:47:01;2.20;99.90
68385;DHT22;55336;43.062;25.626;2023-03-24T02:49:32;2.20;99.90
68385;DHT22;55336;43.062;25.626;2023-03-24T02:52:03;2.20;99.90
68385;DHT22;55336;43.062;25.626;2023-03-24T02:59:39;2.20;99.90
68385;DHT22;55336;43.062;25.626;2023-03-24T03:02:06;2.10;99.90
68385;DHT22;55336;43.062;25.626;2023-03-24T03:07:23;2.00;99.90
68385;DHT22;55336;43.062;25.626;2023-03-24T03:09:55;2.00;99.90
68385;DHT22;55336;43.062;25.626;2023-03-24T03:12:22;2.00;99.90
68385;DHT22;55336;43.062;25.626;2023-03-24T03:14:54;2.00;99.90
68385;DHT22;55336;43.062;25.626;2023-03-24T03:17:25;1.90;99.90
68385;DHT22;55336;43.062;25.626;2023-03-24T03:19:58;1.90;99.90
68385;DHT22;55336;43.062;25.626;2023-03-24T03:22:33;1.80;99.90
68385;DHT22;55336;43.062;25.626;2023-03-24T03:25:02;1.80;99.90
68385;DHT22;55336;43.062;25.626;2023-03-24T03:27:29;1.80;99.90
68385;DHT22;55336;43.062;25.626;2023-03-24T03:29:57;1.70;99.90
68385;DHT22;55336;43.062;25.626;2023-03-24T03:32:29;1.70;99.90
68385;DHT22;55336;43.062;25.626;2023-03-24T03:34:58;1.70;99.90
68385;DHT22;55336;43.062;25.626;2023-03-24T03:42:30;1.70;99.90
68385;DHT22;55336;43.062;25.626;2023-03-24T03:44:56;1.60;99.90
68385;DHT22;55336;43.062;25.626;2023-03-24T03:47:22;1.60;99.90
68385;DHT22;55336;43.062;25.626;2023-03-24T03:49:48;1.70;99.90
68385;DHT22;55336;43.062;25.626;2023-03-24T03:52:14;1.60;99.90
68385;DHT22;55336;43.062;25.626;2023-03-24T03:54:40;1.60;99.90
68385;DHT22;55336;43.062;25.626;2023-03-24T03:57:07;1.60;99.90
68385;DHT22;55336;43.062;25.626;2023-03-24T03:59:34;1.60;99.90
68385;DHT22;55336;43.062;25.626;2023-03-24T04:02:07;1.60;99.90
68385;DHT22;55336;43.062;25.626;2023-03-24T04:07:22;1.50;99.90
68385;DHT22;55336;43.062;25.626;2023-03-24T04:12:27;1.60;99.90
68385;DHT22;55336;43.062;25.626;2023-03-24T04:15:00;1.60;99.90
68385;DHT22;55336;43.062;25.626;2023-03-24T04:17:44;1.60;99.90
68385;DHT22;55336;43.062;25.626;2023-03-24T04:22:47;1.70;99.90
68385;DHT22;55336;43.062;25.626;2023-03-24T04:30:37;1.70;99.90
68385;DHT22;55336;43.062;25.626;2023-03-24T04:35:39;1.80;99.90
68385;DHT22;55336;43.062;25.626;2023-03-24T04:38:09;1.90;99.90
68385;DHT22;55336;43.062;25.626;2023-03-24T04:40:36;1.90;99.90
68385;DHT22;55336;43.062;25.626;2023-03-24T04:43:06;1.90;99.90
68385;DHT22;55336;43.062;25.626;2023-03-24T04:45:33;1.80;99.90
68385;DHT22;55336;43.062;25.626;2023-03-24T04:48:01;1.80;99.90
68385;DHT22;55336;43.062;25.626;2023-03-24T04:50:34;1.90;99.90
68385;DHT22;55336;43.062;25.626;2023-03-24T04:53:00;1.90;99.90
68385;DHT22;55336;43.062;25.626;2023-03-24T04:57:56;1.80;99.90
68385;DHT22;55336;43.062;25.626;2023-03-24T05:00:22;1.70;99.90
68385;DHT22;55336;43.062;25.626;2023-03-24T05:02:48;1.60;99.90
68385;DHT22;55336;43.062;25.626;2023-03-24T05:05:16;1.60;99.90
68385;DHT22;55336;43.062;25.626;2023-03-24T05:07:42;1.70;99.90
68385;DHT22;55336;43.062;25.626;2023-03-24T05:10:09;1.80;99.90
68385;DHT22;55336;43.062;25.626;2023-03-24T05:12:35;2.00;99.90
68385;DHT22;55336;43.062;25.626;2023-03-24T05:15:00;2.00;99.90
68385;DHT22;55336;43.062;25.626;2023-03-24T05:17:26;2.10;99.90
68385;DHT22;55336;43.062;25.626;2023-03-24T05:19:52;2.30;99.90
68385;DHT22;55336;43.062;25.626;2023-03-24T05:22:18;2.30;99.90
68385;DHT22;55336;43.062;25.626;2023-03-24T05:24:43;2.40;99.90
68385;DHT22;55336;43.062;25.626;2023-03-24T05:27:09;2.40;99.90
68385;DHT22;55336;43.062;25.626;2023-03-24T05:29:35;2.50;99.90
68385;DHT22;55336;43.062;25.626;2023-03-24T05:32:01;2.60;99.90
68385;DHT22;55336;43.062;25.626;2023-03-24T05:34:27;2.70;99.90
68385;DHT22;55336;43.062;25.626;2023-03-24T05:36:53;2.80;99.90
68385;DHT22;55336;43.062;25.626;2023-03-24T05:39:19;3.00;99.90
68385;DHT22;55336;43.062;25.626;2023-03-24T05:41:45;3.20;99.90
68385;DHT22;55336;43.062;25.626;2023-03-24T05:44:11;3.40;99.90
68385;DHT22;55336;43.062;25.626;2023-03-24T05:46:36;3.60;99.90
68385;DHT22;55336;43.062;25.626;2023-03-24T05:49:02;3.90;99.90
68385;DHT22;55336;43.062;25.626;2023-03-24T05:51:28;4.10;99.90
68385;DHT22;55336;43.062;25.626;2023-03-24T05:53:54;4.30;99.90
68385;DHT22;55336;43.062;25.626;2023-03-24T05:56:20;4.60;99.90
68385;DHT22;55336;43.062;25.626;2023-03-24T05:58:46;4.70;99.90
68385;DHT22;55336;43.062;25.626;2023-03-24T06:01:12;4.30;99.90
68385;DHT22;55336;43.062;25.626;2023-03-24T06:03:37;4.90;99.90
68385;DHT22;55336;43.062;25.626;2023-03-24T06:06:04;5.30;99.90
68385;DHT22;55336;43.062;25.626;2023-03-24T06:08:31;5.90;99.90
68385;DHT22;55336;43.062;25.626;2023-03-24T06:10:58;6.20;99.90
68385;DHT22;55336;43.062;25.626;2023-03-24T06:13:27;6.30;99.90
68385;DHT22;55336;43.062;25.626;2023-03-24T06:15:52;6.60;99.90
68385;DHT22;55336;43.062;25.626;2023-03-24T06:18:19;6.80;99.90
68385;DHT22;55336;43.062;25.626;2023-03-24T06:20:45;7.30;99.90
68385;DHT22;55336;43.062;25.626;2023-03-24T06:23:15;8.00;99.90
68385;DHT22;55336;43.062;25.626;2023-03-24T06:25:41;8.20;99.90
68385;DHT22;55336;43.062;25.626;2023-03-24T06:28:09;8.40;99.90
68385;DHT22;55336;43.062;25.626;2023-03-24T06:30:36;8.70;99.90
68385;DHT22;55336;43.062;25.626;2023-03-24T06:33:03;9.20;99.90
68385;DHT22;55336;43.062;25.626;2023-03-24T06:35:29;9.50;99.90
68385;DHT22;55336;43.062;25.626;2023-03-24T06:37:55;9.80;99.90
68385;DHT22;55336;43.062;25.626;2023-03-24T06:40:22;9.90;99.90
68385;DHT22;55336;43.062;25.626;2023-03-24T06:42:47;10.10;99.90
68385;DHT22;55336;43.062;25.626;2023-03-24T06:45:14;10.50;99.90
68385;DHT22;55336;43.062;25.626;2023-03-24T06:47:40;10.70;99.90
68385;DHT22;55336;43.062;25.626;2023-03-24T06:50:08;10.90;99.90
68385;DHT22;55336;43.062;25.626;2023-03-24T06:52:35;11.40;99.90
68385;DHT22;55336;43.062;25.626;2023-03-24T06:55:01;11.40;99.90
68385;DHT22;55336;43.062;25.626;2023-03-24T06:57:28;11.70;99.90
68385;DHT22;55336;43.062;25.626;2023-03-24T06:59:54;12.50;99.90
68385;DHT22;55336;43.062;25.626;2023-03-24T07:02:20;12.30;99.90
68385;DHT22;55336;43.062;25.626;2023-03-24T07:04:49;12.60;99.90
68385;DHT22;55336;43.062;25.626;2023-03-24T07:07:19;13.10;99.90
68385;DHT22;55336;43.062;25.626;2023-03-24T07:09:46;13.40;99.90
68385;DHT22;55336;43.062;25.626;2023-03-24T07:12:12;13.60;99.90
68385;DHT22;55336;43.062;25.626;2023-03-24T07:14:38;13.80;99.90
68385;DHT22;55336;43.062;25.626;2023-03-24T07:17:04;14.10;99.90
68385;DHT22;55336;43.062;25.626;2023-03-24T07:19:30;14.60;99.90
68385;DHT22;55336;43.062;25.626;2023-03-24T07:21:56;15.10;99.90
68385;DHT22;55336;43.062;25.626;2023-03-24T07:24:22;15.60;99.90
68385;DHT22;55336;43.062;25.626;2023-03-24T07:26:48;15.80;97.20
68385;DHT22;55336;43.062;25.626;2023-03-24T07:29:13;16.30;92.60
68385;DHT22;55336;43.062;25.626;2023-03-24T07:31:39;16.30;91.10
68385;DHT22;55336;43.062;25.626;2023-03-24T07:34:05;16.10;94.50
68385;DHT22;55336;43.062;25.626;2023-03-24T07:39:05;16.80;84.70
68385;DHT22;55336;43.062;25.626;2023-03-24T07:41:32;17.20;81.90
68385;DHT22;55336;43.062;25.626;2023-03-24T07:43:58;17.50;78.10
68385;DHT22;55336;43.062;25.626;2023-03-24T07:46:23;17.60;75.50
68385;DHT22;55336;43.062;25.626;2023-03-24T07:48:49;18.00;74.00
68385;DHT22;55336;43.062;25.626;2023-03-24T07:51:15;18.10;73.80
68385;DHT22;55336;43.062;25.626;2023-03-24T07:53:42;18.40;76.40
68385;DHT22;55336;43.062;25.626;2023-03-24T07:56:10;18.50;79.10
68385;DHT22;55336;43.062;25.626;2023-03-24T07:58:35;19.00;70.40
68385;DHT22;55336;43.062;25.626;2023-03-24T08:01:04;19.50;67.60
68385;DHT22;55336;43.062;25.626;2023-03-24T08:03:30;19.90;67.00
68385;DHT22;55336;43.062;25.626;2023-03-24T08:05:56;20.30;62.00
68385;DHT22;55336;43.062;25.626;2023-03-24T08:08:21;20.30;64.20
68385;DHT22;55336;43.062;25.626;2023-03-24T08:10:47;20.30;62.40
68385;DHT22;55336;43.062;25.626;2023-03-24T08:13:14;20.30;60.10
68385;DHT22;55336;43.062;25.626;2023-03-24T08:15:40;20.40;60.30
68385;DHT22;55336;43.062;25.626;2023-03-24T08:18:06;19.90;61.50
68385;DHT22;55336;43.062;25.626;2023-03-24T08:20:31;20.30;59.70
68385;DHT22;55336;43.062;25.626;2023-03-24T08:22:57;20.40;61.10
68385;DHT22;55336;43.062;25.626;2023-03-24T08:25:25;20.20;60.20
68385;DHT22;55336;43.062;25.626;2023-03-24T08:27:52;20.60;57.70
68385;DHT22;55336;43.062;25.626;2023-03-24T08:30:19;20.60;57.50
68385;DHT22;55336;43.062;25.626;2023-03-24T08:32:46;21.00;56.50
68385;DHT22;55336;43.062;25.626;2023-03-24T08:35:12;21.40;55.20
68385;DHT22;55336;43.062;25.626;2023-03-24T08:37:39;21.60;53.20
68385;DHT22;55336;43.062;25.626;2023-03-24T08:40:08;21.80;51.70
68385;DHT22;55336;43.062;25.626;2023-03-24T08:42:38;22.30;50.20
68385;DHT22;55336;43.062;25.626;2023-03-24T08:45:07;20.90;54.70
68385;DHT22;55336;43.062;25.626;2023-03-24T08:47:34;21.60;50.90
68385;DHT22;55336;43.062;25.626;2023-03-24T08:49:59;22.00;50.30
68385;DHT22;55336;43.062;25.626;2023-03-24T08:52:25;22.40;48.30
68385;DHT22;55336;43.062;25.626;2023-03-24T08:54:51;22.00;48.10
68385;DHT22;55336;43.062;25.626;2023-03-24T08:57:17;21.50;48.50
68385;DHT22;55336;43.062;25.626;2023-03-24T08:59:43;21.70;49.20
68385;DHT22;55336;43.062;25.626;2023-03-24T09:02:10;22.30;45.70
68385;DHT22;55336;43.062;25.626;2023-03-24T09:04:36;22.60;43.60
68385;DHT22;55336;43.062;25.626;2023-03-24T09:07:02;22.60;42.60
68385;DHT22;55336;43.062;25.626;2023-03-24T09:09:28;22.90;42.30
68385;DHT22;55336;43.062;25.626;2023-03-24T09:11:54;23.10;42.10
68385;DHT22;55336;43.062;25.626;2023-03-24T09:14:20;23.00;38.50
68385;DHT22;55336;43.062;25.626;2023-03-24T09:16:47;23.30;38.80
68385;DHT22;55336;43.062;25.626;2023-03-24T09:19:15;23.40;40.20
68385;DHT22;55336;43.062;25.626;2023-03-24T09:21:43;23.30;39.10
68385;DHT22;55336;43.062;25.626;2023-03-24T09:24:09;23.00;39.20
68385;DHT22;55336;43.062;25.626;2023-03-24T09:26:34;22.60;41.80
68385;DHT22;55336;43.062;25.626;2023-03-24T09:29:00;22.70;45.40
68385;DHT22;55336;43.062;25.626;2023-03-24T09:31:27;23.70;37.50
68385;DHT22;55336;43.062;25.626;2023-03-24T09:33:52;24.20;33.20
68385;DHT22;55336;43.062;25.626;2023-03-24T09:36:18;23.00;36.70
68385;DHT22;55336;43.062;25.626;2023-03-24T09:38:44;23.70;33.90
68385;DHT22;55336;43.062;25.626;2023-03-24T09:41:14;24.40;32.70
68385;DHT22;55336;43.062;25.626;2023-03-24T09:48:54;24.80;26.70
68385;DHT22;55336;43.062;25.626;2023-03-24T09:56:32;24.80;25.60
68385;DHT22;55336;43.062;25.626;2023-03-24T10:01:25;25.10;26.00
68385;DHT22;55336;43.062;25.626;2023-03-24T10:03:51;23.70;31.60
68385;DHT22;55336;43.062;25.626;2023-03-24T10:06:22;24.00;27.60
68385;DHT22;55336;43.062;25.626;2023-03-24T10:14:09;24.30;26.00
68385;DHT22;55336;43.062;25.626;2023-03-24T10:22:15;24.70;31.50
68385;DHT22;55336;43.062;25.626;2023-03-24T10:24:56;25.30;27.50
68385;DHT22;55336;43.062;25.626;2023-03-24T10:29:50;26.10;27.70
68385;DHT22;55336;43.062;25.626;2023-03-24T10:32:18;25.60;28.50
68385;DHT22;55336;43.062;25.626;2023-03-24T10:34:56;24.80;30.90
68385;DHT22;55336;43.062;25.626;2023-03-24T10:37:23;25.50;27.30
68385;DHT22;55336;43.062;25.626;2023-03-24T10:39:49;25.20;27.50
68385;DHT22;55336;43.062;25.626;2023-03-24T10:42:17;25.30;27.60
68385;DHT22;55336;43.062;25.626;2023-03-24T10:44:45;25.70;25.80
68385;DHT22;55336;43.062;25.626;2023-03-24T10:47:11;25.70;25.70
68385;DHT22;55336;43.062;25.626;2023-03-24T10:49:37;26.00;26.50
68385;DHT22;55336;43.062;25.626;2023-03-24T10:52:16;26.10;26.20
68385;DHT22;55336;43.062;25.626;2023-03-24T10:54:44;26.40;27.00
68385;DHT22;55336;43.062;25.626;2023-03-24T10:57:17;25.90;27.00
68385;DHT22;55336;43.062;25.626;2023-03-24T11:02:25;26.00;29.60
68385;DHT22;55336;43.062;25.626;2023-03-24T11:04:55;26.10;29.70
68385;DHT22;55336;43.062;25.626;2023-03-24T11:07:22;25.60;29.70
68385;DHT22;55336;43.062;25.626;2023-03-24T11:12:24;25.30;32.40
68385;DHT22;55336;43.062;25.626;2023-03-24T11:14:50;25.70;32.00
68385;DHT22;55336;43.062;25.626;2023-03-24T11:17:25;25.40;30.30
68385;DHT22;55336;43.062;25.626;2023-03-24T11:19:55;25.30;30.50
68385;DHT22;55336;43.062;25.626;2023-03-24T11:22:21;25.70;29.70
68385;DHT22;55336;43.062;25.626;2023-03-24T11:24:51;26.10;29.20
68385;DHT22;55336;43.062;25.626;2023-03-24T11:27:19;26.20;31.50
68385;DHT22;55336;43.062;25.626;2023-03-24T11:29:49;25.50;30.80
68385;DHT22;55336;43.062;25.626;2023-03-24T11:32:21;25.70;29.70
68385;DHT22;55336;43.062;25.626;2023-03-24T11:34:48;25.70;28.60
68385;DHT22;55336;43.062;25.626;2023-03-24T11:37:20;25.80;29.20
68385;DHT22;55336;43.062;25.626;2023-03-24T11:42:31;25.40;30.50
68385;DHT22;55336;43.062;25.626;2023-03-24T11:44:57;25.60;29.40
68385;DHT22;55336;43.062;25.626;2023-03-24T11:47:26;25.50;28.60
68385;DHT22;55336;43.062;25.626;2023-03-24T11:52:32;25.80;28.70
68385;DHT22;55336;43.062;25.626;2023-03-24T11:54:59;25.40;28.80
68385;DHT22;55336;43.062;25.626;2023-03-24T11:57:27;25.80;30.00
68385;DHT22;55336;43.062;25.626;2023-03-24T11:59:58;25.70;27.40
68385;DHT22;55336;43.062;25.626;2023-03-24T12:04:58;25.40;27.60
68385;DHT22;55336;43.062;25.626;2023-03-24T12:10:16;25.30;26.90
68385;DHT22;55336;43.062;25.626;2023-03-24T12:15:39;25.60;26.60
68385;DHT22;55336;43.062;25.626;2023-03-24T12:23:07;24.70;29.10
68385;DHT22;55336;43.062;25.626;2023-03-24T12:33:25;25.60;25.60
68385;DHT22;55336;43.062;25.626;2023-03-24T12:36:01;25.40;30.10
68385;DHT22;55336;43.062;25.626;2023-03-24T12:41:14;26.10;26.80
68385;DHT22;55336;43.062;25.626;2023-03-24T12:43:57;26.30;28.00
68385;DHT22;55336;43.062;25.626;2023-03-24T12:46:37;26.50;24.10
68385;DHT22;55336;43.062;25.626;2023-03-24T12:56:46;25.70;25.50
68385;DHT22;55336;43.062;25.626;2023-03-24T12:59:20;25.60;24.90
68385;DHT22;55336;43.062;25.626;2023-03-24T13:04:31;25.50;24.90
68385;DHT22;55336;43.062;25.626;2023-03-24T13:07:11;26.10;24.70
68385;DHT22;55336;43.062;25.626;2023-03-24T13:12:11;26.40;23.30
68385;DHT22;55336;43.062;25.626;2023-03-24T13:17:11;25.70;26.00
68385;DHT22;55336;43.062;25.626;2023-03-24T13:19:39;26.10;23.50
68385;DHT22;55336;43.062;25.626;2023-03-24T13:22:08;26.40;24.70
68385;DHT22;55336;43.062;25.626;2023-03-24T13:24:37;26.40;22.90
68385;DHT22;55336;43.062;25.626;2023-03-24T13:27:05;26.30;25.00
68385;DHT22;55336;43.062;25.626;2023-03-24T13:32:24;25.10;27.60
68385;DHT22;55336;43.062;25.626;2023-03-24T13:37:55;26.30;24.30
68385;DHT22;55336;43.062;25.626;2023-03-24T13:40:26;26.20;24.00
68385;DHT22;55336;43.062;25.626;2023-03-24T13:43:28;26.30;23.60
68385;DHT22;55336;43.062;25.626;2023-03-24T13:45:51;26.30;23.50
68385;DHT22;55336;43.062;25.626;2023-03-24T13:51:06;26.70;25.20
68385;DHT22;55336;43.062;25.626;2023-03-24T13:53:34;25.70;23.50
68385;DHT22;55336;43.062;25.626;2023-03-24T13:56:01;26.20;25.90
68385;DHT22;55336;43.062;25.626;2023-03-24T13:58:44;25.70;25.50
68385;DHT22;55336;43.062;25.626;2023-03-24T14:04:18;26.10;25.50
68385;DHT22;55336;43.062;25.626;2023-03-24T14:06:45;26.30;24.40
68385;DHT22;55336;43.062;25.626;2023-03-24T14:09:19;26.30;24.10
68385;DHT22;55336;43.062;25.626;2023-03-24T14:14:22;26.90;22.90
68385;DHT22;55336;43.062;25.626;2023-03-24T14:16:49;27.00;21.90
68385;DHT22;55336;43.062;25.626;2023-03-24T14:19:17;26.80;21.50
68385;DHT22;55336;43.062;25.626;2023-03-24T14:21:43;27.10;23.10
68385;DHT22;55336;43.062;25.626;2023-03-24T14:24:25;27.60;22.30
68385;DHT22;55336;43.062;25.626;2023-03-24T14:26:52;27.60;22.20
68385;DHT22;55336;43.062;25.626;2023-03-24T14:29:37;27.90;21.50
68385;DHT22;55336;43.062;25.626;2023-03-24T14:32:03;27.80;20.40
68385;DHT22;55336;43.062;25.626;2023-03-24T14:34:29;27.30;21.40
68385;DHT22;55336;43.062;25.626;2023-03-24T14:36:59;27.30;21.60
68385;DHT22;55336;43.062;25.626;2023-03-24T14:39:32;27.10;22.40
68385;DHT22;55336;43.062;25.626;2023-03-24T14:42:00;27.20;22.10
68385;DHT22;55336;43.062;25.626;2023-03-24T14:47:14;27.20;21.80
68385;DHT22;55336;43.062;25.626;2023-03-24T14:49:40;26.70;21.50
68385;DHT22;55336;43.062;25.626;2023-03-24T14:52:10;26.10;22.60
68385;DHT22;55336;43.062;25.626;2023-03-24T14:57:02;26.30;23.80
68385;DHT22;55336;43.062;25.626;2023-03-24T15:04:39;26.80;23.50
68385;DHT22;55336;43.062;25.626;2023-03-24T15:07:05;27.00;22.40
68385;DHT22;55336;43.062;25.626;2023-03-24T15:09:30;27.00;22.20
68385;DHT22;55336;43.062;25.626;2023-03-24T15:12:00;26.80;22.70
68385;DHT22;55336;43.062;25.626;2023-03-24T15:14:26;26.90;21.90
68385;DHT22;55336;43.062;25.626;2023-03-24T15:17:20;26.80;23.40
68385;DHT22;55336;43.062;25.626;2023-03-24T15:19:48;26.90;23.70
68385;DHT22;55336;43.062;25.626;2023-03-24T15:22:14;26.70;23.20
68385;DHT22;55336;43.062;25.626;2023-03-24T15:24:45;26.20;24.00
68385;DHT22;55336;43.062;25.626;2023-03-24T15:27:18;25.90;24.20
68385;DHT22;55336;43.062;25.626;2023-03-24T15:29:48;25.80;25.60
68385;DHT22;55336;43.062;25.626;2023-03-24T15:32:18;25.20;28.10
68385;DHT22;55336;43.062;25.626;2023-03-24T15:34:49;24.90;30.00
68385;DHT22;55336;43.062;25.626;2023-03-24T15:37:34;24.80;28.80
68385;DHT22;55336;43.062;25.626;2023-03-24T15:40:01;24.60;26.90
68385;DHT22;55336;43.062;25.626;2023-03-24T15:42:26;24.30;28.60
68385;DHT22;55336;43.062;25.626;2023-03-24T15:44:53;23.80;28.10
68385;DHT22;55336;43.062;25.626;2023-03-24T15:47:23;23.40;30.60
68385;DHT22;55336;43.062;25.626;2023-03-24T15:49:53;23.10;31.10
68385;DHT22;55336;43.062;25.626;2023-03-24T15:52:28;22.50;33.70
68385;DHT22;55336;43.062;25.626;2023-03-24T15:55:05;22.10;34.60
68385;DHT22;55336;43.062;25.626;2023-03-24T15:57:38;21.70;32.80
68385;DHT22;55336;43.062;25.626;2023-03-24T16:00:12;21.40;34.80
68385;DHT22;55336;43.062;25.626;2023-03-24T16:02:50;20.90;40.40
68385;DHT22;55336;43.062;25.626;2023-03-24T16:07:56;20.20;44.00
68385;DHT22;55336;43.062;25.626;2023-03-24T16:10:27;19.90;44.90
68385;DHT22;55336;43.062;25.626;2023-03-24T16:13:29;19.40;50.10
68385;DHT22;55336;43.062;25.626;2023-03-24T16:15:56;19.00;49.80
68385;DHT22;55336;43.062;25.626;2023-03-24T16:18:29;18.60;50.60
68385;DHT22;55336;43.062;25.626;2023-03-24T16:20:59;18.20;52.20
68385;DHT22;55336;43.062;25.626;2023-03-24T16:23:25;17.90;54.00
68385;DHT22;55336;43.062;25.626;2023-03-24T16:25:51;17.50;55.10
68385;DHT22;55336;43.062;25.626;2023-03-24T16:28:18;17.10;56.90
68385;DHT22;55336;43.062;25.626;2023-03-24T16:30:44;16.80;57.00
68385;DHT22;55336;43.062;25.626;2023-03-24T16:33:12;16.60;58.80
68385;DHT22;55336;43.062;25.626;2023-03-24T16:35:39;16.20;61.00
68385;DHT22;55336;43.062;25.626;2023-03-24T16:38:05;15.90;63.00
68385;DHT22;55336;43.062;25.626;2023-03-24T16:40:33;15.60;62.50
68385;DHT22;55336;43.062;25.626;2023-03-24T16:43:00;15.40;64.70
68385;DHT22;55336;43.062;25.626;2023-03-24T16:45:27;15.20;64.60
68385;DHT22;55336;43.062;25.626;2023-03-24T16:47:53;14.90;68.20
68385;DHT22;55336;43.062;25.626;2023-03-24T16:50:21;14.70;74.80
68385;DHT22;55336;43.062;25.626;2023-03-24T16:52:48;14.50;75.50
68385;DHT22;55336;43.062;25.626;2023-03-24T16:55:14;14.20;74.60
68385;DHT22;55336;43.062;25.626;2023-03-24T16:57:40;14.00;78.80
68385;DHT22;55336;43.062;25.626;2023-03-24T17:00:05;13.70;82.30
68385;DHT22;55336;43.062;25.626;2023-03-24T17:02:35;13.60;84.50
68385;DHT22;55336;43.062;25.626;2023-03-24T17:05:23;13.40;92.50
68385;DHT22;55336;43.062;25.626;2023-03-24T17:07:52;13.20;99.90
68385;DHT22;55336;43.062;25.626;2023-03-24T17:10:18;13.10;99.90
68385;DHT22;55336;43.062;25.626;2023-03-24T17:12:45;12.90;99.90
68385;DHT22;55336;43.062;25.626;2023-03-24T17:15:16;12.80;99.90
68385;DHT22;55336;43.062;25.626;2023-03-24T17:17:42;12.70;99.90
68385;DHT22;55336;43.062;25.626;2023-03-24T17:20:08;12.50;99.90
68385;DHT22;55336;43.062;25.626;2023-03-24T17:22:34;12.50;99.90
68385;DHT22;55336;43.062;25.626;2023-03-24T17:24:59;12.40;99.90
68385;DHT22;55336;43.062;25.626;2023-03-24T17:27:25;12.30;99.90
68385;DHT22;55336;43.062;25.626;2023-03-24T17:29:51;12.20;99.90
68385;DHT22;55336;43.062;25.626;2023-03-24T17:32:17;12.20;99.90
68385;DHT22;55336;43.062;25.626;2023-03-24T17:34:45;12.10;99.90
68385;DHT22;55336;43.062;25.626;2023-03-24T17:37:12;12.00;99.90
68385;DHT22;55336;43.062;25.626;2023-03-24T17:39:38;11.90;99.90
68385;DHT22;55336;43.062;25.626;2023-03-24T17:42:03;11.70;99.90
68385;DHT22;55336;43.062;25.626;2023-03-24T17:44:29;11.70;99.90
68385;DHT22;55336;43.062;25.626;2023-03-24T17:46:55;11.60;99.90
68385;DHT22;55336;43.062;25.626;2023-03-24T17:49:20;11.50;99.90
68385;DHT22;55336;43.062;25.626;2023-03-24T17:51:46;11.40;99.90
68385;DHT22;55336;43.062;25.626;2023-03-24T17:54:12;11.40;99.90
68385;DHT22;55336;43.062;25.626;2023-03-24T17:56:38;11.30;99.90
68385;DHT22;55336;43.062;25.626;2023-03-24T17:59:03;11.20;99.90
68385;DHT22;55336;43.062;25.626;2023-03-24T18:01:30;11.00;99.90
68385;DHT22;55336;43.062;25.626;2023-03-24T18:03:59;11.10;99.90
68385;DHT22;55336;43.062;25.626;2023-03-24T18:06:25;11.00;99.90
68385;DHT22;55336;43.062;25.626;2023-03-24T18:08:52;11.00;99.90
68385;DHT22;55336;43.062;25.626;2023-03-24T18:11:18;11.00;99.90